首页
METAR-TAF:

METAR-TAF

机场 :

蘇瀑支線機場

蘇瀑, 南达科他州, 美国

纬度: 43-34-37N, 经度: 096-45-13W, 海拔: 435米

当前天气观测

该预报发布于41分钟前的23:56 UTC
风速9节,风向
温度 28°C
湿度 58%
气压 1006 hPa
能見度: 16.1公里
多云层高于4700英尺
多云层高于25000英尺

METAR: KFSD 162356Z 36009KT 10SM BKN047 BKN250 28/19 A2971 RMK AO2 SLP050 T02830189 10300 20267 53013

时间: 19:37 (00:37 UTC)

预报

该预报发布于1小时和9分钟前的23:28 UTC
预报有效从17日的 00点(UTC)到 17日的 24点(UTC)
风速8节,风向
能見度: 10公里
散云层高于5000英尺
从 17日的 0400点(UTC)
风速8节,风向东转东北
能見度: 10公里
多云层高于6000英尺
短暂存在
从 17日的 04点(UTC)到 17日的 08点(UTC)
能見度: 6.4公里
散云层高于1500英尺
阴天层高于3000英尺, 积雨云.
雷暴, 雨
从 17日的 0800点(UTC)
风速11节,风向东转东北,有时为19节阵风
能見度: 8.0公里
散云层高于1000英尺
阴天层高于3500英尺, 积雨云.
小阵雨, 附近有雷暴
从 17日的 1600点(UTC)
风速14节,风向东转东南,有时为23节阵风
能見度: 10公里
多云层高于1000英尺

TAF: KFSD 162328Z 1700/1724 35008KT P6SM SCT050 FM170400 06008KT P6SM BKN060 TEMPO 1704/1708 4SM TSRA SCT015 OVC030CB FM170800 07011G19KT 5SM -SHRA VCTS SCT010 OVC035CB FM171600 12014G23KT P6SM BKN010

超过4000个机场的气象观测和天气预报(METAR&TAF报告)。

可查询的气象台以黄色和红色小点在地图上表示。

将鼠标移到小点上方,可查看气象台名称。

然后点击查看天气观测和预报。

如需切换地图:点击带黑十字的绿色按钮放大地图;点击带横线的绿色按钮缩小地图;或者点击绿色箭头查看邻近地区的地图。


METAR-TAF: